Time,TemperatureF,DewpointF,PressureIn,WindDirection,WindDirectionDegrees,WindSpeedMPH,WindSpeedGustMPH,Humidity,HourlyPrecipIn,Conditions,Clouds,dailyrainin,SoftwareType,DateUTC
2013-09-21 00:13:00,55.4,52.2,29.81,NW,315,0.0,-999.0,89,-99.99,,,0.00,Acu-Link.com,2013-09-21 04:13:00,
2013-09-21 00:28:00,55.2,52.9,29.81,West,270,0.0,-999.0,92,-99.99,,,0.00,Acu-Link.com,2013-09-21 04:28:00,
2013-09-21 00:44:00,55.0,53.1,29.81,West,270,0.0,-999.0,93,-99.99,,,0.00,Acu-Link.com,2013-09-21 04:44:00,
2013-09-21 00:59:00,54.7,52.7,29.81,ESE,112,0.0,-999.0,93,-99.99,,,0.00,Acu-Link.com,2013-09-21 04:59:00,
2013-09-21 01:14:00,54.5,52.5,29.82,West,270,1.1,-999.0,93,-99.99,,,0.00,Acu-Link.com,2013-09-21 05:14:00,
2013-09-21 01:29:00,54.0,52.6,29.82,WNW,292,0.0,-999.0,95,-99.99,,,0.00,Acu-Link.com,2013-09-21 05:29:00,
2013-09-21 01:44:00,53.4,52.0,29.82,West,270,0.0,-999.0,95,-99.99,,,0.00,Acu-Link.com,2013-09-21 05:44:00,
2013-09-21 02:00:00,53.2,52.1,29.82,NNE,22,0.0,-999.0,96,-99.99,,,0.00,Acu-Link.com,2013-09-21 06:00:00,
2013-09-21 02:15:00,53.1,52.5,29.81,WNW,292,0.0,-999.0,98,-99.99,,,0.00,Acu-Link.com,2013-09-21 06:15:00,
2013-09-21 02:30:00,53.1,52.8,29.81,NNW,337,0.0,-999.0,99,-99.99,,,0.00,Acu-Link.com,2013-09-21 06:30:00,
2013-09-21 02:45:00,52.7,52.4,29.81,WNW,292,0.0,-999.0,99,-99.99,,,0.00,Acu-Link.com,2013-09-21 06:45:00,
2013-09-21 03:00:00,52.3,52.1,29.81,SSW,202,0.0,-999.0,99,-99.99,,,0.00,Acu-Link.com,2013-09-21 07:00:00,
2013-09-21 03:16:00,52.7,52.4,29.81,SSW,202,0.0,-999.0,99,-99.99,,,0.00,Acu-Link.com,2013-09-21 07:16:00,
2013-09-21 03:31:00,52.7,52.4,29.81,South,180,0.0,-999.0,99,-99.99,,,0.00,Acu-Link.com,2013-09-21 07:31:00,
2013-09-21 03:46:00,53.2,53.0,29.80,North,0,0.0,-999.0,99,-99.99,,,0.00,Acu-Link.com,2013-09-21 07:46:00,
2013-09-21 04:01:00,52.5,52.2,29.80,NNW,337,0.0,-999.0,99,-99.99,,,0.00,Acu-Link.com,2013-09-21 08:01:00,
2013-09-21 04:17:00,52.7,52.4,29.80,North,0,0.0,-999.0,99,-99.99,,,0.00,Acu-Link.com,2013-09-21 08:17:00,
2013-09-21 04:33:00,52.5,52.2,29.80,West,270,0.0,-999.0,99,-99.99,,,0.00,Acu-Link.com,2013-09-21 08:33:00,
2013-09-21 04:48:00,52.7,52.4,29.80,NW,315,0.0,-999.0,99,-99.99,,,0.00,Acu-Link.com,2013-09-21 08:48:00,
2013-09-21 05:03:00,53.6,53.3,29.80,West,270,0.0,-999.0,99,-99.99,,,0.00,Acu-Link.com,2013-09-21 09:03:00,
2013-09-21 05:18:00,53.6,53.3,29.79,South,180,1.6,-999.0,99,-99.99,,,0.00,Acu-Link.com,2013-09-21 09:18:00,
2013-09-21 05:33:00,53.2,53.0,29.78,West,270,0.0,-999.0,99,-99.99,,,0.00,Acu-Link.com,2013-09-21 09:33:00,
2013-09-21 05:48:00,52.0,51.7,29.78,WNW,292,0.0,-999.0,99,-99.99,,,0.00,Acu-Link.com,2013-09-21 09:48:00,
2013-09-21 06:04:00,52.0,51.7,29.78,WNW,292,0.0,-999.0,99,-99.99,,,0.00,Acu-Link.com,2013-09-21 10:04:00,
2013-09-21 06:19:00,52.0,51.7,29.77,WNW,292,0.0,-999.0,99,-99.99,,,0.00,Acu-Link.com,2013-09-21 10:19:00,
2013-09-21 06:34:00,51.8,51.5,29.77,WNW,292,0.0,-999.0,99,-99.99,,,0.00,Acu-Link.com,2013-09-21 10:34:00,
2013-09-21 06:49:00,52.2,51.9,29.77,NNW,337,0.0,-999.0,99,-99.99,,,0.00,Acu-Link.com,2013-09-21 10:49:00,